Herat Airport
OAHR : now visible

Airfield :











YOU CAN JOIN US ON...

 
LOGIN :

Register | Disclaimer

   EN    FR    IT 

 









Legend :    VFR   Marginal VFR   IFR   Intensive IFR   Very Intensive IFR
Visi :
Ceiling :
>= 8 km
>= 3000ft
5 to 8 km
1000 to 3000 ft
1500m to 5 km
500 to 1000 ft
800 to 1500m
200 to 500 ft
< 800m
< 200 ft
Symbols :   Thunderstorms  Fog  Heavy snow  Heavy precipitations  Wind > 20 kt






- Airport Elevation : 3206 ft
- IATA code : HEA


OAHR - Herat

CURRENT METAR :
  • 191455Z 00000KT 9000 FEW040 BKN060 04/03 Q1020 RMK A3013 BLU

EXPIRED METARs :
  • 191355Z VRB03KT 9999 FEW040 BKN060 04/03 Q1019 RMK A3011 BLU

TAF TAF OAHR
Valid from the 19 at 12:00 until the 20 at 12:00 UTC


191100Z 1912/2012 VRB03KT 9999 SCT040 BKN060
TEMPO 1917/1923 5000 -RA BR BKN030 OVC060
BECMG 1923/2001 BKN020 OVC050
TEMPO 2002/2008 1600 -RASN BR BKN010



MET'MAP, your aeronautical weather chart ! - Copyright ORBIFLY December 2007 - Disclaimer

ORBIFLY MET'MAP TEAM :

Programming & Development : Alexandra Zaïnal
Concept & original design : Baudouin d'Aumeries
Assistance for programming : Marc-Olivier Méhu
Technical & hardware support : Manuel Goepfert

Contact : metmap@orbifly.com




SOURCES & CREDITS :

   NOAA       Earth
Advisory